Time;durP1;ratioP1;P1;durP2;ratioP2;P2;SDS_P1;SDS_P2;PMS_P1;PMS_P2;Temp;Humidity;BMP_temperature;BMP_pressure;BME280_temperature;BME280_humidity;BME280_pressure;Samples;Min_cycle;Max_cycle;Signal;HPM_P1;HPM_P2
2022/02/13 00:00:42;;;;;;;5.80;2.43;;;0.40;99.90;;;;;;5002577;28;20239;-80
2022/02/13 00:03:07;;;;;;;3.20;2.10;;;0.50;99.90;;;;;;5005262;28;20608;-78
2022/02/13 00:05:33;;;;;;;4.73;1.80;;;0.70;99.90;;;;;;5005108;28;20203;-78
2022/02/13 00:08:00;;;;;;;3.07;2.33;;;0.70;99.90;;;;;;5018182;28;20302;-80
2022/02/13 00:10:26;;;;;;;3.90;2.07;;;0.80;99.90;;;;;;5004640;28;20191;-77
2022/02/13 00:12:52;;;;;;;2.13;1.53;;;0.80;99.90;;;;;;5002725;28;20724;-81
2022/02/13 00:15:18;;;;;;;5.30;2.90;;;0.70;99.90;;;;;;5004249;28;20191;-80
2022/02/13 00:17:43;;;;;;;3.60;2.60;;;0.70;99.90;;;;;;5003947;28;20222;-79
2022/02/13 00:20:09;;;;;;;5.03;2.87;;;0.70;99.90;;;;;;5001160;28;20211;-76
2022/02/13 00:22:35;;;;;;;4.00;2.30;;;0.60;99.90;;;;;;5001125;28;20176;-80
2022/02/13 00:25:01;;;;;;;3.20;2.20;;;0.60;99.90;;;;;;5001953;28;20183;-77
2022/02/13 00:27:27;;;;;;;3.40;2.27;;;0.90;99.90;;;;;;5000882;28;20731;-77
2022/02/13 00:29:52;;;;;;;3.93;2.00;;;1.10;99.90;;;;;;5000584;28;20222;-80
2022/02/13 00:32:18;;;;;;;3.07;1.83;;;1.30;99.90;;;;;;5004577;28;20545;-80
2022/02/13 00:34:44;;;;;;;2.80;2.13;;;1.50;99.90;;;;;;5009827;28;20186;-75
2022/02/13 00:37:10;;;;;;;3.87;2.30;;;1.90;99.90;;;;;;5016911;28;20180;-78
2022/02/13 00:39:36;;;;;;;5.23;2.33;;;2.20;99.90;;;;;;5004674;28;20242;-78
2022/02/13 00:42:02;;;;;;;3.30;1.83;;;2.10;99.90;;;;;;5018730;28;20176;-78
2022/02/13 00:44:27;;;;;;;3.10;2.03;;;2.20;99.90;;;;;;5001778;28;20221;-77
2022/02/13 00:46:53;;;;;;;3.43;2.00;;;2.20;99.90;;;;;;5003116;28;20218;-80
2022/02/13 00:49:19;;;;;;;4.33;2.00;;;2.20;99.90;;;;;;5002697;28;20254;-77
2022/02/13 00:51:45;;;;;;;3.40;2.27;;;2.10;99.90;;;;;;4999055;28;20191;-78
2022/02/13 00:54:10;;;;;;;2.63;1.97;;;2.10;99.90;;;;;;5014875;28;20630;-79
2022/02/13 00:56:36;;;;;;;2.63;1.90;;;2.10;99.90;;;;;;5017993;28;20241;-80
2022/02/13 00:59:01;;;;;;;2.30;2.03;;;2.00;99.90;;;;;;5019569;28;20230;-77
2022/02/13 01:01:27;;;;;;;5.47;2.20;;;1.90;99.90;;;;;;4999695;28;20278;-78
2022/02/13 01:03:55;;;;;;;3.90;2.10;;;1.80;99.90;;;;;;5003624;28;20259;-78
2022/02/13 01:06:21;;;;;;;4.13;2.23;;;1.80;99.90;;;;;;5001356;28;20208;-77
2022/02/13 01:08:47;;;;;;;3.23;2.27;;;1.80;99.90;;;;;;5000150;28;20207;-78
2022/02/13 01:11:12;;;;;;;2.77;1.93;;;2.00;99.90;;;;;;5002956;28;20259;-80
2022/02/13 01:13:38;;;;;;;2.83;2.23;;;2.30;99.90;;;;;;5002297;28;20840;-79
2022/02/13 01:16:04;;;;;;;4.53;2.17;;;2.20;99.90;;;;;;5017612;28;20196;-76
2022/02/13 01:18:29;;;;;;;4.03;2.33;;;2.30;99.90;;;;;;5001810;28;20207;-78
2022/02/13 01:20:55;;;;;;;3.10;1.90;;;2.60;99.90;;;;;;5017675;28;20184;-80
2022/02/13 01:23:21;;;;;;;3.40;2.00;;;2.80;99.90;;;;;;4998226;28;20239;-78
2022/02/13 01:25:47;;;;;;;3.47;2.10;;;3.00;99.90;;;;;;5000285;28;20179;-79
2022/02/13 01:28:12;;;;;;;2.23;1.80;;;3.00;99.90;;;;;;4999363;28;20583;-80
2022/02/13 01:30:38;;;;;;;2.97;2.00;;;3.10;99.90;;;;;;5001879;28;20188;-77
2022/02/13 01:33:04;;;;;;;3.53;2.10;;;3.10;99.90;;;;;;5001046;28;20199;-76
2022/02/13 01:35:30;;;;;;;2.67;2.00;;;3.00;99.90;;;;;;5005899;28;20195;-78
2022/02/13 01:37:56;;;;;;;2.93;2.03;;;3.00;99.90;;;;;;5004446;28;20602;-76
2022/02/13 01:40:22;;;;;;;3.30;2.00;;;3.00;99.90;;;;;;5002987;28;20180;-79
2022/02/13 01:42:47;;;;;;;4.10;2.27;;;3.00;99.90;;;;;;5019566;28;20279;-80
2022/02/13 01:45:13;;;;;;;4.87;2.60;;;3.00;99.90;;;;;;5002146;28;20190;-77
2022/02/13 01:47:39;;;;;;;5.63;2.30;;;3.10;99.90;;;;;;5002431;28;20207;-81
2022/02/13 01:50:08;;;;;;;2.93;2.00;;;3.00;99.90;;;;;;5011808;28;20243;-78
2022/02/13 01:52:34;;;;;;;2.57;1.60;;;2.90;99.90;;;;;;5004089;28;20184;-78
2022/02/13 01:55:00;;;;;;;2.63;2.10;;;2.70;99.90;;;;;;5019227;28;20537;-78
2022/02/13 01:57:27;;;;;;;3.63;2.50;;;2.60;99.90;;;;;;5004183;28;20346;-76
2022/02/13 01:59:54;;;;;;;3.70;2.73;;;2.80;99.90;;;;;;5003366;28;20191;-78
2022/02/13 02:02:20;;;;;;;5.47;2.30;;;2.80;99.90;;;;;;5004452;28;20200;-81
2022/02/13 02:04:47;;;;;;;5.87;2.30;;;2.70;99.90;;;;;;5006703;28;20187;-78
2022/02/13 02:07:13;;;;;;;4.53;2.30;;;2.50;99.90;;;;;;5018797;28;20663;-77
2022/02/13 02:09:38;;;;;;;3.87;2.57;;;2.40;99.90;;;;;;5019810;28;20208;-79
2022/02/13 02:12:05;;;;;;;3.00;2.23;;;2.30;99.90;;;;;;5002845;28;20187;-81
2022/02/13 02:14:31;;;;;;;3.90;2.37;;;2.20;99.90;;;;;;5004326;28;21306;-81
2022/02/13 02:16:57;;;;;;;4.00;2.53;;;2.20;99.90;;;;;;5003790;28;20180;-80
2022/02/13 02:19:22;;;;;;;4.47;2.27;;;2.00;99.90;;;;;;5019959;28;20211;-80
2022/02/13 02:21:48;;;;;;;3.43;1.80;;;1.80;99.90;;;;;;5022147;28;20574;-78
2022/02/13 02:24:15;;;;;;;4.53;2.20;;;1.80;99.90;;;;;;5004044;28;20255;-78
2022/02/13 02:26:41;;;;;;;3.27;2.10;;;1.70;99.90;;;;;;5011069;28;20184;-78
2022/02/13 02:29:07;;;;;;;5.73;2.10;;;1.70;99.90;;;;;;5002202;28;20207;-81
2022/02/13 02:31:33;;;;;;;3.63;2.30;;;1.80;99.90;;;;;;5007421;28;20187;-81
2022/02/13 02:33:59;;;;;;;3.47;2.43;;;1.80;99.90;;;;;;5004905;28;20269;-78
2022/02/13 02:36:24;;;;;;;3.00;2.23;;;1.90;99.90;;;;;;5018446;28;20194;-79
2022/02/13 02:38:50;;;;;;;3.20;2.10;;;1.80;99.90;;;;;;5001287;28;20208;-78
2022/02/13 02:41:16;;;;;;;2.73;1.90;;;1.70;99.90;;;;;;5002653;28;20549;-80
2022/02/13 02:43:42;;;;;;;3.40;2.50;;;1.80;99.90;;;;;;5015399;28;20665;-77
2022/02/13 02:46:10;;;;;;;3.63;2.27;;;1.90;99.90;;;;;;5005497;28;20194;-79
2022/02/13 02:48:36;;;;;;;3.53;2.10;;;1.80;99.90;;;;;;5002278;28;20841;-79
2022/02/13 02:51:02;;;;;;;2.77;1.77;;;1.70;99.90;;;;;;5001521;28;20195;-80
2022/02/13 02:53:28;;;;;;;2.90;2.17;;;1.60;99.90;;;;;;5018166;28;20239;-78
2022/02/13 02:55:54;;;;;;;2.67;2.10;;;1.50;99.90;;;;;;5015069;28;20219;-77
2022/02/13 02:58:20;;;;;;;3.70;2.00;;;1.40;99.90;;;;;;5000411;28;20239;-78
2022/02/13 03:00:46;;;;;;;5.10;2.03;;;1.40;99.90;;;;;;4998599;28;20196;-79
2022/02/13 03:03:11;;;;;;;2.93;2.00;;;1.30;99.90;;;;;;5016662;28;20222;-78
2022/02/13 03:05:37;;;;;;;5.40;2.10;;;1.20;99.90;;;;;;4994390;28;20570;-77
2022/02/13 03:08:03;;;;;;;4.27;2.00;;;1.10;99.90;;;;;;4997576;28;20204;-78
2022/02/13 03:10:29;;;;;;;3.90;2.30;;;0.90;99.90;;;;;;4995917;28;20712;-78
2022/02/13 03:12:54;;;;;;;4.17;2.37;;;0.80;99.90;;;;;;4997549;28;20191;-76
2022/02/13 03:15:20;;;;;;;3.13;2.07;;;0.70;99.90;;;;;;4999203;28;20180;-81
2022/02/13 03:17:46;;;;;;;4.03;2.23;;;1.00;99.90;;;;;;5002385;28;20550;-79
2022/02/13 03:20:11;;;;;;;3.27;2.10;;;0.90;99.90;;;;;;5018765;28;20562;-79
2022/02/13 03:22:37;;;;;;;4.10;2.00;;;1.00;99.90;;;;;;5018346;28;20187;-76
2022/02/13 03:25:03;;;;;;;3.67;2.43;;;0.90;99.90;;;;;;5001990;28;20191;-81
2022/02/13 03:27:29;;;;;;;4.93;2.10;;;0.90;99.90;;;;;;5000383;28;20203;-79
2022/02/13 03:29:55;;;;;;;4.00;2.43;;;0.90;99.90;;;;;;5017510;28;20202;-79
2022/02/13 03:32:21;;;;;;;5.07;2.37;;;1.30;99.90;;;;;;5016653;28;20178;-80
2022/02/13 03:34:47;;;;;;;4.00;2.23;;;1.60;99.90;;;;;;5006690;28;20192;-82
2022/02/13 03:37:14;;;;;;;3.20;2.00;;;1.50;99.90;;;;;;5002817;28;20207;-78
2022/02/13 03:39:39;;;;;;;3.67;2.70;;;1.40;99.90;;;;;;5001207;28;20212;-78
2022/02/13 03:42:05;;;;;;;3.47;2.07;;;1.30;99.90;;;;;;5013635;28;20185;-78
2022/02/13 03:44:33;;;;;;;4.40;1.90;;;1.40;99.90;;;;;;5002070;28;20554;-81
2022/02/13 03:46:59;;;;;;;3.80;2.17;;;1.50;99.90;;;;;;5001048;28;20188;-79
2022/02/13 03:49:25;;;;;;;3.67;2.10;;;1.40;99.90;;;;;;5003147;28;20952;-80
2022/02/13 03:51:51;;;;;;;3.13;2.20;;;1.30;99.90;;;;;;5015743;28;20239;-77
2022/02/13 03:54:16;;;;;;;3.00;2.17;;;1.10;99.90;;;;;;5017038;28;20179;-78
2022/02/13 03:56:42;;;;;;;4.83;2.63;;;1.00;99.90;;;;;;5000948;28;20191;-78
2022/02/13 03:59:07;;;;;;;3.20;2.13;;;0.90;99.90;;;;;;5000708;28;20233;-78
2022/02/13 04:01:33;;;;;;;3.37;2.30;;;0.80;99.90;;;;;;5000491;28;20176;-77
2022/02/13 04:03:59;;;;;;;4.33;2.43;;;0.90;99.90;;;;;;5010700;28;20590;-78
2022/02/13 04:06:24;;;;;;;2.80;2.10;;;0.90;99.90;;;;;;4997302;28;20195;-76
2022/02/13 04:08:50;;;;;;;4.60;2.30;;;1.00;99.90;;;;;;5000033;28;20223;-78
2022/02/13 04:11:15;;;;;;;2.80;1.90;;;0.80;99.90;;;;;;5000797;28;20189;-80
2022/02/13 04:13:41;;;;;;;4.50;2.43;;;0.80;99.90;;;;;;5015113;28;20181;-77
2022/02/13 04:16:08;;;;;;;3.67;2.63;;;0.70;99.90;;;;;;5015274;28;20191;-78
2022/02/13 04:18:33;;;;;;;4.23;2.33;;;0.60;99.90;;;;;;5001513;28;20282;-78
2022/02/13 04:20:59;;;;;;;2.80;2.00;;;0.40;99.90;;;;;;5001051;28;20209;-78
2022/02/13 04:23:27;;;;;;;5.27;2.40;;;0.30;99.90;;;;;;5014745;28;20180;-80
2022/02/13 04:25:53;;;;;;;2.93;1.93;;;0.30;99.90;;;;;;5015694;28;20184;-80
2022/02/13 04:28:18;;;;;;;3.77;2.53;;;0.20;99.90;;;;;;5017250;28;20298;-80
2022/02/13 04:30:44;;;;;;;3.90;2.10;;;0.20;99.90;;;;;;5016263;28;20210;-78
2022/02/13 04:33:09;;;;;;;4.00;2.30;;;0.40;99.90;;;;;;5016224;28;20192;-77
2022/02/13 04:35:36;;;;;;;4.10;2.30;;;0.50;99.90;;;;;;4999026;28;20187;-77
2022/02/13 04:38:02;;;;;;;3.47;1.97;;;0.60;99.90;;;;;;5000995;28;20232;-78
2022/02/13 04:40:27;;;;;;;3.33;2.13;;;0.60;99.90;;;;;;5001244;28;20183;-78
2022/02/13 04:42:53;;;;;;;3.47;2.53;;;0.50;99.90;;;;;;4998768;28;20180;-78
2022/02/13 04:45:19;;;;;;;3.30;2.40;;;0.50;99.90;;;;;;4999296;28;20263;-78
2022/02/13 04:47:45;;;;;;;5.60;2.40;;;0.40;99.90;;;;;;5002928;28;20226;-78
2022/02/13 04:50:11;;;;;;;3.50;2.37;;;0.40;99.90;;;;;;5001201;28;20219;-79
2022/02/13 04:52:37;;;;;;;4.37;2.33;;;0.40;99.90;;;;;;5014573;28;20184;-78
2022/02/13 04:55:04;;;;;;;3.07;2.23;;;0.40;99.90;;;;;;5002523;28;20561;-80
2022/02/13 04:57:29;;;;;;;4.60;2.50;;;0.40;99.90;;;;;;5002197;28;20204;-77
2022/02/13 04:59:55;;;;;;;4.67;2.37;;;0.40;99.90;;;;;;5003153;28;20211;-82
2022/02/13 05:02:21;;;;;;;5.37;2.40;;;0.30;99.90;;;;;;5012425;28;20199;-78
2022/02/13 05:04:46;;;;;;;4.23;2.07;;;0.30;99.90;;;;;;5001168;28;20211;-79
2022/02/13 05:07:12;;;;;;;3.20;2.13;;;0.40;99.90;;;;;;4998035;28;20334;-76
2022/02/13 05:09:38;;;;;;;3.70;2.10;;;0.30;99.90;;;;;;4996007;28;20290;-77
2022/02/13 05:12:04;;;;;;;6.20;2.13;;;0.40;99.90;;;;;;4996655;28;20612;-78
2022/02/13 05:14:29;;;;;;;3.20;2.10;;;0.30;99.90;;;;;;4995697;28;20191;-78
2022/02/13 05:16:55;;;;;;;3.27;2.13;;;0.40;99.90;;;;;;5013170;28;20645;-78
2022/02/13 05:19:21;;;;;;;3.40;2.60;;;0.40;99.90;;;;;;4998602;28;20204;-78
2022/02/13 05:21:46;;;;;;;3.53;2.40;;;0.50;99.90;;;;;;4994800;28;20261;-77
2022/02/13 05:24:12;;;;;;;4.73;2.67;;;0.50;99.90;;;;;;4998585;28;20213;-78
2022/02/13 05:26:38;;;;;;;3.63;2.30;;;0.40;99.90;;;;;;4999473;28;20183;-77
2022/02/13 05:29:04;;;;;;;3.93;2.30;;;0.30;99.90;;;;;;4996781;28;20199;-78
2022/02/13 05:31:30;;;;;;;3.67;2.20;;;0.20;99.90;;;;;;5003509;28;20299;-79
2022/02/13 05:34:01;;;;;;;2.63;1.93;;;0.20;99.90;;;;;;4996923;28;20654;-77
2022/02/13 05:36:27;;;;;;;3.43;2.63;;;0.00;99.90;;;;;;4998036;28;20618;-78
2022/02/13 05:38:53;;;;;;;3.23;2.43;;;-0.10;99.90;;;;;;5011592;28;20253;-77
2022/02/13 05:41:19;;;;;;;2.57;2.23;;;-0.20;99.90;;;;;;4997484;28;20514;-78
2022/02/13 05:43:45;;;;;;;4.40;2.87;;;-0.20;99.90;;;;;;4997369;28;20200;-78
2022/02/13 05:46:10;;;;;;;3.10;2.30;;;-0.30;99.90;;;;;;4994707;28;20187;-77
2022/02/13 05:48:37;;;;;;;3.03;2.30;;;-0.30;99.90;;;;;;5014344;28;20687;-77
2022/02/13 05:51:03;;;;;;;3.13;2.10;;;-0.30;99.90;;;;;;5010832;28;20288;-78
2022/02/13 05:53:29;;;;;;;5.27;2.63;;;-0.40;99.90;;;;;;5013842;28;20274;-77
2022/02/13 05:55:54;;;;;;;3.50;2.83;;;-0.50;99.90;;;;;;5011753;28;20755;-78
2022/02/13 05:58:20;;;;;;;3.73;2.50;;;-0.50;99.90;;;;;;4995979;28;20291;-77
2022/02/13 06:00:46;;;;;;;3.83;2.30;;;-0.50;99.90;;;;;;4989553;28;20698;-77
2022/02/13 06:03:11;;;;;;;4.30;2.77;;;-0.60;99.90;;;;;;4994623;28;20238;-78
2022/02/13 06:05:38;;;;;;;3.43;2.43;;;-0.70;99.90;;;;;;4999755;28;20179;-77
2022/02/13 06:08:04;;;;;;;3.77;2.60;;;-0.90;99.90;;;;;;4988532;28;20274;-77
2022/02/13 06:10:30;;;;;;;3.73;2.80;;;-1.00;99.90;;;;;;4997554;28;20191;-77
2022/02/13 06:12:55;;;;;;;4.60;2.77;;;-1.10;99.90;;;;;;4993276;28;20184;-77
2022/02/13 06:15:21;;;;;;;4.13;2.63;;;-1.30;99.90;;;;;;5012167;28;20275;-77
2022/02/13 06:17:47;;;;;;;5.13;2.93;;;-1.30;99.90;;;;;;4997203;28;20210;-78
2022/02/13 06:20:12;;;;;;;4.40;3.10;;;-1.30;99.90;;;;;;4997559;28;20536;-78
2022/02/13 06:22:39;;;;;;;4.17;2.90;;;-1.40;99.90;;;;;;4999282;28;20188;-78
2022/02/13 06:25:05;;;;;;;4.23;2.60;;;-1.40;99.90;;;;;;5012142;28;20567;-78
2022/02/13 06:27:31;;;;;;;5.73;3.00;;;-1.40;99.90;;;;;;4995138;28;20188;-78
2022/02/13 06:29:57;;;;;;;3.13;2.53;;;-1.40;99.90;;;;;;4995846;28;20954;-77
2022/02/13 06:32:22;;;;;;;4.53;2.93;;;-1.40;99.90;;;;;;5001045;28;20730;-78
2022/02/13 06:34:48;;;;;;;5.43;3.20;;;-1.50;99.90;;;;;;5000582;28;20198;-78
2022/02/13 06:37:13;;;;;;;4.90;3.03;;;-1.40;99.90;;;;;;4999231;28;20262;-78
2022/02/13 06:39:39;;;;;;;6.90;3.60;;;-1.40;99.90;;;;;;4999952;28;20226;-78
2022/02/13 06:42:05;;;;;;;6.47;2.97;;;-1.50;99.90;;;;;;5000527;28;20229;-78
2022/02/13 06:44:31;;;;;;;4.03;2.90;;;-1.60;99.90;;;;;;5002278;28;20242;-79
2022/02/13 06:46:56;;;;;;;4.60;3.00;;;-1.70;99.90;;;;;;5001495;28;20189;-79
2022/02/13 06:49:22;;;;;;;5.97;3.70;;;-1.70;99.90;;;;;;4999576;28;20199;-78
2022/02/13 06:51:47;;;;;;;4.70;3.33;;;-1.70;99.90;;;;;;5000313;28;20183;-79
2022/02/13 06:54:13;;;;;;;4.90;3.50;;;-1.60;99.90;;;;;;4999443;28;20192;-78
2022/02/13 06:56:38;;;;;;;5.53;3.13;;;-1.60;99.90;;;;;;5001122;28;20237;-78
2022/02/13 06:59:04;;;;;;;6.23;3.27;;;-1.60;99.90;;;;;;4999591;28;20223;-79
2022/02/13 07:01:30;;;;;;;3.80;3.00;;;-1.60;99.90;;;;;;4997827;28;20183;-79
2022/02/13 07:03:56;;;;;;;5.60;3.33;;;-1.70;99.90;;;;;;4994168;28;20177;-79
2022/02/13 07:06:21;;;;;;;4.63;3.10;;;-1.70;99.90;;;;;;4991799;28;20455;-78
2022/02/13 07:08:47;;;;;;;5.33;3.60;;;-1.70;99.90;;;;;;4995391;28;20211;-78
2022/02/13 07:11:12;;;;;;;5.73;3.17;;;-1.60;99.90;;;;;;4997382;28;21215;-78
2022/02/13 07:13:39;;;;;;;4.03;3.00;;;-1.70;99.90;;;;;;4994163;28;20271;-78
2022/02/13 07:16:05;;;;;;;5.13;3.70;;;-1.60;99.90;;;;;;4999604;28;20188;-78
2022/02/13 07:18:31;;;;;;;4.00;3.13;;;-1.50;99.90;;;;;;4990942;28;20243;-78
2022/02/13 07:20:56;;;;;;;5.93;3.30;;;-1.50;99.90;;;;;;4986329;28;20227;-77
2022/02/13 07:23:22;;;;;;;5.77;3.57;;;-1.40;99.90;;;;;;4995700;28;20179;-77
2022/02/13 07:25:48;;;;;;;5.83;3.53;;;-1.40;99.90;;;;;;4989985;28;20448;-77
2022/02/13 07:30:58;;;;;;;4.90;3.17;;;-1.40;99.90;;;;;;4987206;28;20187;-77
2022/02/13 07:33:24;;;;;;;6.23;5.50;;;-1.30;99.90;;;;;;5000585;28;20191;-77
2022/02/13 07:35:50;;;;;;;5.63;4.33;;;-1.10;99.90;;;;;;4996779;28;20184;-78
2022/02/13 07:38:16;;;;;;;5.77;4.13;;;-1.10;99.90;;;;;;4994076;28;20354;-78
2022/02/13 07:40:41;;;;;;;5.40;3.70;;;-1.10;99.90;;;;;;4996885;28;20247;-79
2022/02/13 07:43:07;;;;;;;6.33;4.13;;;-1.00;99.90;;;;;;5007938;28;20315;-77
2022/02/13 07:45:33;;;;;;;5.20;3.70;;;-0.90;99.90;;;;;;4988129;28;20180;-77
2022/02/13 07:47:58;;;;;;;6.00;3.60;;;-0.80;99.90;;;;;;4994641;28;20203;-77
2022/02/13 07:50:24;;;;;;;7.43;5.53;;;-0.70;99.90;;;;;;5006235;28;20202;-79
2022/02/13 07:52:50;;;;;;;6.00;4.53;;;-0.80;99.90;;;;;;5006029;28;20768;-78
2022/02/13 07:55:16;;;;;;;6.50;4.37;;;-0.70;99.90;;;;;;4987473;28;20571;-77
2022/02/13 07:57:44;;;;;;;6.87;4.80;;;-0.70;99.90;;;;;;4985411;28;20710;-77
2022/02/13 08:00:10;;;;;;;9.30;6.23;;;-0.60;99.90;;;;;;4985706;28;20686;-77
2022/02/13 08:02:38;;;;;;;9.43;5.80;;;-0.60;99.90;;;;;;4985621;28;20204;-77
2022/02/13 08:05:04;;;;;;;8.50;4.90;;;-0.50;99.90;;;;;;4980662;28;20192;-78
2022/02/13 08:07:30;;;;;;;8.17;4.97;;;-0.50;99.90;;;;;;4976466;28;20581;-77
2022/02/13 08:09:55;;;;;;;6.87;4.60;;;-0.40;99.90;;;;;;4986665;28;20188;-78
2022/02/13 08:12:21;;;;;;;7.73;4.33;;;-0.40;99.90;;;;;;4996052;28;20200;-77
2022/02/13 08:14:47;;;;;;;8.10;4.83;;;-0.10;99.90;;;;;;4991965;28;20199;-77
2022/02/13 08:17:12;;;;;;;6.23;4.37;;;-0.10;99.90;;;;;;5000146;28;20186;-79
2022/02/13 08:19:38;;;;;;;8.60;4.23;;;0.00;99.90;;;;;;5013316;28;20218;-78
2022/02/13 08:22:05;;;;;;;6.00;3.90;;;0.10;99.90;;;;;;4996361;28;20183;-78
2022/02/13 08:24:30;;;;;;;7.43;4.10;;;0.30;99.90;;;;;;4996778;28;20230;-78
2022/02/13 08:26:56;;;;;;;4.57;3.50;;;0.50;99.90;;;;;;5011884;28;20283;-78
2022/02/13 08:29:22;;;;;;;6.07;3.87;;;0.60;99.90;;;;;;5012946;28;20211;-79
2022/02/13 08:31:48;;;;;;;5.87;4.10;;;0.60;99.90;;;;;;5012282;28;20192;-78
2022/02/13 08:34:13;;;;;;;6.27;4.07;;;0.70;99.90;;;;;;5011079;28;20254;-78
2022/02/13 08:36:39;;;;;;;6.60;4.60;;;0.80;99.90;;;;;;4996041;28;20185;-79
2022/02/13 08:39:05;;;;;;;4.93;4.17;;;1.00;99.90;;;;;;4997613;28;20319;-79
2022/02/13 08:41:31;;;;;;;7.23;4.73;;;1.10;99.90;;;;;;4996992;28;20315;-78
2022/02/13 08:43:56;;;;;;;5.37;4.00;;;1.20;99.90;;;;;;4996632;28;20192;-78
2022/02/13 08:46:23;;;;;;;4.87;3.53;;;1.30;99.90;;;;;;5011625;28;20192;-77
2022/02/13 08:48:49;;;;;;;13.87;9.20;;;1.40;99.90;;;;;;4995901;28;20207;-77
2022/02/13 08:51:14;;;;;;;5.63;4.57;;;1.50;99.90;;;;;;4994218;28;20190;-77
2022/02/13 08:53:40;;;;;;;4.23;3.10;;;1.60;99.90;;;;;;4996279;28;20724;-77
2022/02/13 08:56:07;;;;;;;3.93;2.70;;;1.80;99.90;;;;;;4996117;28;20192;-77
2022/02/13 08:58:33;;;;;;;5.07;3.10;;;1.90;99.90;;;;;;4995731;28;20287;-78
2022/02/13 09:00:59;;;;;;;4.20;3.23;;;2.00;99.90;;;;;;5011169;28;20228;-77
2022/02/13 09:03:25;;;;;;;8.70;3.93;;;2.10;99.90;;;;;;4994110;28;20234;-77
2022/02/13 09:05:50;;;;;;;31.37;20.37;;;2.30;99.90;;;;;;4994247;28;20184;-77
2022/02/13 09:08:16;;;;;;;6.70;5.03;;;2.60;99.90;;;;;;4995533;28;20226;-78
2022/02/13 09:10:42;;;;;;;4.87;4.00;;;2.70;99.90;;;;;;4994942;28;20565;-78
2022/02/13 09:13:08;;;;;;;6.43;3.67;;;2.90;99.90;;;;;;4995874;28;20184;-77
2022/02/13 09:15:34;;;;;;;5.13;3.10;;;3.10;99.90;;;;;;4996552;28;20576;-76
2022/02/13 09:17:59;;;;;;;5.53;2.80;;;3.30;99.90;;;;;;4996869;28;20270;-77
2022/02/13 09:20:25;;;;;;;6.37;3.17;;;3.40;99.90;;;;;;5012393;28;20727;-76
2022/02/13 09:22:52;;;;;;;3.83;2.80;;;3.60;99.90;;;;;;4994938;28;20177;-77
2022/02/13 09:25:19;;;;;;;3.60;2.80;;;3.70;99.90;;;;;;5011612;28;20180;-77
2022/02/13 09:27:44;;;;;;;9.63;6.13;;;3.90;99.90;;;;;;4996647;28;20246;-77
2022/02/13 09:30:10;;;;;;;9.97;4.53;;;4.10;99.90;;;;;;4994508;28;20944;-78
2022/02/13 09:32:38;;;;;;;24.03;13.73;;;4.30;99.90;;;;;;4994767;28;20175;-80
2022/02/13 09:35:05;;;;;;;6.17;3.97;;;4.30;99.90;;;;;;4992799;28;20183;-77
2022/02/13 09:37:31;;;;;;;2.77;2.40;;;4.40;99.90;;;;;;4994563;28;20176;-76
2022/02/13 09:39:56;;;;;;;3.43;2.53;;;4.50;99.90;;;;;;4994933;28;20261;-79
2022/02/13 09:42:22;;;;;;;4.07;2.57;;;4.50;99.90;;;;;;4996264;28;20562;-76
2022/02/13 09:44:48;;;;;;;2.67;1.87;;;4.70;99.90;;;;;;5010906;28;20877;-79
2022/02/13 09:47:15;;;;;;;3.30;2.17;;;4.90;99.90;;;;;;4995075;28;20787;-77
2022/02/13 09:49:40;;;;;;;3.03;2.40;;;5.00;99.90;;;;;;4993389;28;20216;-79
2022/02/13 09:52:08;;;;;;;3.13;2.00;;;4.90;99.90;;;;;;4986769;28;20187;-79
2022/02/13 09:54:36;;;;;;;4.93;2.30;;;5.10;99.90;;;;;;4985563;28;20180;-80
2022/02/13 09:59:58;;;;;;;3.93;2.33;;;5.20;99.90;;;;;;4989271;28;20502;-80
2022/02/13 10:02:37;;;;;;;3.07;2.10;;;5.20;99.90;;;;;;5014943;28;20199;-80
2022/02/13 10:05:05;;;;;;;3.00;2.10;;;5.20;99.90;;;;;;5000287;28;20172;-80
2022/02/13 10:07:32;;;;;;;4.03;2.20;;;5.30;99.90;;;;;;5011239;28;20180;-81
2022/02/13 10:09:59;;;;;;;3.03;2.40;;;5.30;99.90;;;;;;5000432;28;20267;-80
2022/02/13 10:12:45;;;;;;;3.07;1.83;;;5.50;99.90;;;;;;4994599;28;20184;-79
2022/02/13 10:15:27;;;;;;;3.57;2.63;;;5.60;99.90;;;;;;4991132;28;20192;-80
2022/02/13 10:18:04;;;;;;;3.63;2.30;;;5.80;99.90;;;;;;5008531;28;20212;-79
2022/02/13 10:20:41;;;;;;;3.20;2.60;;;5.90;99.90;;;;;;4994871;28;20179;-79
2022/02/13 10:23:10;;;;;;;4.87;2.93;;;5.90;99.90;;;;;;5000894;28;20175;-80
2022/02/13 10:25:36;;;;;;;4.70;2.70;;;5.90;99.90;;;;;;4991914;28;20259;-79
2022/02/13 10:28:16;;;;;;;2.53;2.10;;;6.00;99.90;;;;;;4997669;28;20204;-79
2022/02/13 10:30:44;;;;;;;3.70;2.37;;;6.10;99.90;;;;;;4991788;28;20191;-78
2022/02/13 10:33:22;;;;;;;8.50;4.00;;;6.20;99.90;;;;;;4991511;28;20176;-79
2022/02/13 10:36:02;;;;;;;5.50;3.03;;;6.20;99.90;;;;;;5003787;28;20183;-79
2022/02/13 10:38:36;;;;;;;5.23;2.60;;;6.20;99.90;;;;;;4996124;28;20670;-79
2022/02/13 10:41:18;;;;;;;3.27;2.33;;;6.30;99.90;;;;;;4991262;28;20244;-79
2022/02/13 10:43:58;;;;;;;3.27;2.20;;;6.40;99.90;;;;;;4984349;28;20239;-79
2022/02/13 10:46:29;;;;;;;4.00;3.10;;;6.50;99.90;;;;;;4988464;28;20199;-79
2022/02/13 10:48:55;;;;;;;3.47;2.47;;;6.60;99.90;;;;;;5008812;28;20207;-79
2022/02/13 10:51:22;;;;;;;3.00;2.43;;;6.60;99.90;;;;;;4994765;28;20560;-79
2022/02/13 10:53:48;;;;;;;2.80;2.23;;;6.70;99.90;;;;;;5007306;28;20295;-80
2022/02/13 10:56:14;;;;;;;4.00;2.57;;;6.70;99.90;;;;;;5014950;28;20180;-79
2022/02/13 10:58:39;;;;;;;3.20;2.17;;;6.80;99.90;;;;;;4996761;28;20210;-78
2022/02/13 11:01:07;;;;;;;8.03;4.63;;;6.80;99.90;;;;;;4984654;28;20614;-79
2022/02/13 11:03:34;;;;;;;4.73;2.20;;;6.90;99.90;;;;;;4988115;28;20220;-80
2022/02/13 11:06:02;;;;;;;3.77;2.33;;;7.10;99.90;;;;;;4991606;28;20705;-78
2022/02/13 11:08:43;;;;;;;5.40;3.50;;;7.10;99.90;;;;;;4989465;28;20215;-79
2022/02/13 11:11:12;;;;;;;14.13;9.13;;;7.10;99.90;;;;;;4995543;28;20207;-79
2022/02/13 11:13:39;;;;;;;6.30;4.13;;;7.00;98.70;;;;;;4989045;28;20203;-78
2022/02/13 11:16:27;;;;;;;2.83;2.43;;;6.90;99.80;;;;;;4991104;28;20278;-80
2022/02/13 11:18:57;;;;;;;5.23;2.60;;;6.90;97.80;;;;;;4987457;28;20226;-79
2022/02/13 11:21:23;;;;;;;2.83;2.33;;;7.10;99.10;;;;;;4989492;28;20211;-80
2022/02/13 11:23:52;;;;;;;2.40;1.77;;;7.10;99.10;;;;;;4999933;28;20532;-77
2022/02/13 11:26:43;;;;;;;2.90;1.70;;;7.10;97.60;;;;;;4998293;28;20199;-79
2022/02/13 11:29:11;;;;;;;2.60;1.67;;;7.30;97.50;;;;;;5008935;28;20212;-79
2022/02/13 11:31:40;;;;;;;2.80;2.03;;;7.50;96.10;;;;;;5009489;28;20236;-78
2022/02/13 11:34:09;;;;;;;4.33;2.13;;;7.50;98.00;;;;;;4989942;28;20188;-80
2022/02/13 11:36:51;;;;;;;3.03;2.00;;;7.60;97.20;;;;;;4992705;28;20571;-79
2022/02/13 11:39:40;;;;;;;3.27;2.30;;;7.60;96.30;;;;;;4999338;28;20216;-79
2022/02/13 11:42:19;;;;;;;2.03;1.83;;;7.70;97.10;;;;;;5005600;28;20180;-78
2022/02/13 11:44:54;;;;;;;2.93;2.07;;;7.70;95.70;;;;;;5009418;28;20183;-78
2022/02/13 11:47:32;;;;;;;4.77;2.50;;;7.80;97.70;;;;;;4988183;28;20190;-79
2022/02/13 11:50:11;;;;;;;3.00;2.00;;;7.90;95.20;;;;;;4988968;28;20665;-78
2022/02/13 11:52:39;;;;;;;2.20;1.67;;;7.80;95.40;;;;;;4988623;28;20195;-77
2022/02/13 11:55:07;;;;;;;2.90;2.23;;;7.80;96.40;;;;;;4992668;28;20728;-77
2022/02/13 11:57:33;;;;;;;3.57;2.00;;;7.80;97.60;;;;;;4989849;28;20192;-80
2022/02/13 11:59:59;;;;;;;2.57;2.00;;;7.80;95.30;;;;;;5014759;28;20654;-79
2022/02/13 12:02:30;;;;;;;2.70;1.87;;;7.80;95.70;;;;;;4997530;28;20199;-78
2022/02/13 12:05:11;;;;;;;2.83;2.07;;;7.90;95.20;;;;;;5000756;28;20173;-78
2022/02/13 12:07:54;;;;;;;4.33;2.33;;;8.00;96.90;;;;;;4992659;28;20551;-79
2022/02/13 12:10:28;;;;;;;3.30;2.10;;;8.10;95.90;;;;;;4998427;28;20179;-77
2022/02/13 12:13:17;;;;;;;2.07;1.57;;;8.00;96.30;;;;;;4991924;28;20650;-77
2022/02/13 12:15:54;;;;;;;2.80;2.10;;;8.00;95.80;;;;;;4986887;28;20173;-79
2022/02/13 12:18:21;;;;;;;2.57;1.93;;;8.10;95.20;;;;;;4989466;28;20228;-78
2022/02/13 12:20:48;;;;;;;2.27;2.03;;;8.20;95.20;;;;;;4993413;28;20180;-77
2022/02/13 12:23:18;;;;;;;4.80;3.37;;;8.20;96.00;;;;;;4994224;28;20192;-75
2022/02/13 12:25:46;;;;;;;4.03;2.60;;;8.30;96.90;;;;;;4995533;28;20654;-78
2022/02/13 12:28:13;;;;;;;3.27;2.60;;;8.20;96.50;;;;;;4995290;28;20203;-78
2022/02/13 12:30:55;;;;;;;2.73;1.90;;;8.20;95.20;;;;;;4979522;28;20621;-79
2022/02/13 12:33:25;;;;;;;2.50;1.77;;;8.20;96.00;;;;;;4990608;28;20188;-80
2022/02/13 12:35:57;;;;;;;2.37;1.70;;;8.30;94.00;;;;;;4991429;28;20215;-78
2022/02/13 12:38:23;;;;;;;2.23;1.70;;;8.30;94.30;;;;;;5013335;28;20706;-77
2022/02/13 12:40:48;;;;;;;3.17;1.67;;;8.30;95.40;;;;;;4993107;28;20321;-78
2022/02/13 12:43:17;;;;;;;3.47;2.13;;;8.40;94.90;;;;;;4995431;28;20262;-80
2022/02/13 12:45:44;;;;;;;6.83;4.23;;;8.50;95.70;;;;;;4987110;28;20181;-78
2022/02/13 12:48:15;;;;;;;10.03;7.07;;;8.40;95.70;;;;;;4998506;28;20204;-79
2022/02/13 12:50:46;;;;;;;4.53;3.20;;;8.40;96.30;;;;;;4995054;28;20199;-78
2022/02/13 12:53:26;;;;;;;3.57;1.93;;;8.50;96.00;;;;;;5008851;28;20565;-80
2022/02/13 12:55:57;;;;;;;3.10;1.83;;;8.60;96.10;;;;;;4988709;28;20186;-80
2022/02/13 12:58:22;;;;;;;2.17;1.60;;;8.60;95.00;;;;;;4992004;28;20207;-80
2022/02/13 13:00:50;;;;;;;2.30;1.83;;;8.60;93.80;;;;;;5010461;28;20186;-81